Time;durP1;ratioP1;P1;durP2;ratioP2;P2;SDS_P1;SDS_P2;PMS_P1;PMS_P2;Temp;Humidity;BMP_temperature;BMP_pressure;BME280_temperature;BME280_humidity;BME280_pressure;Samples;Min_cycle;Max_cycle;Signal;HPM_P1;HPM_P2
2023/09/28 00:00:39;;;;;;;475.03;224.97;;;;;;;;;;5000159;28;20177;-79
2023/09/28 00:03:09;;;;;;;472.83;228.20;;;;;;;;;;4991737;28;20223;-79
2023/09/28 00:05:35;;;;;;;491.00;233.57;;;;;;;;;;4993315;28;23331;-79
2023/09/28 00:08:02;;;;;;;455.63;217.40;;;;;;;;;;5000470;28;20239;-79
2023/09/28 00:10:28;;;;;;;454.23;218.03;;;;;;;;;;4996585;28;20209;-79
2023/09/28 00:12:54;;;;;;;439.40;210.50;;;;;;;;;;4992019;28;20217;-79
2023/09/28 00:15:20;;;;;;;458.03;213.63;;;;;;;;;;4999776;28;20189;-79
2023/09/28 00:17:51;;;;;;;479.07;231.60;;;;;;;;;;4996973;28;20218;-79
2023/09/28 00:20:18;;;;;;;458.80;218.23;;;;;;;;;;4989004;28;20655;-79
2023/09/28 00:22:50;;;;;;;463.97;225.80;;;;;;;;;;4997980;28;20221;-79
2023/09/28 00:25:16;;;;;;;443.30;211.93;;;17.40;1.00;;;;;;5002530;28;20754;-79
2023/09/28 00:27:47;;;;;;;492.73;241.43;;;17.30;1.00;;;;;;4999442;28;20193;-79
2023/09/28 00:30:20;;;;;;;455.77;216.03;;;17.10;1.00;;;;;;4993081;28;20220;-79
2023/09/28 00:32:46;;;;;;;452.70;214.53;;;;;;;;;;4997899;28;20648;-79
2023/09/28 00:35:13;;;;;;;470.17;223.73;;;;;;;;;;4998568;28;20274;-78
2023/09/28 00:37:39;;;;;;;472.90;225.53;;;;;;;;;;4997392;28;20221;-78
2023/09/28 00:40:50;;;;;;;487.63;230.53;;;;;;;;;;5002600;28;20177;-79
2023/09/28 00:42:51;;;;;;;491.70;238.00;;;;;;;;;;4989022;28;20340;-79
2023/09/28 00:45:22;;;;;;;453.10;209.73;;;17.00;1.00;;;;;;4992589;28;20235;-79
2023/09/28 00:47:51;;;;;;;442.00;210.53;;;;;;;;;;4993542;28;20782;-79
2023/09/28 00:50:18;;;;;;;455.07;209.17;;;;;;;;;;5007103;28;20225;-79
2023/09/28 00:52:46;;;;;;;464.40;217.27;;;16.90;1.00;;;;;;4996860;28;20235;-79
2023/09/28 00:55:15;;;;;;;454.10;210.03;;;;;;;;;;4999003;28;20276;-79
2023/09/28 00:57:42;;;;;;;481.63;227.73;;;16.90;1.00;;;;;;4999989;28;20208;-79
2023/09/28 01:00:31;;;;;;;443.77;209.90;;;16.80;1.00;;;;;;4994513;28;20217;-78
2023/09/28 01:02:56;;;;;;;454.13;216.63;;;;;;;;;;4999430;28;20228;-80
2023/09/28 01:05:22;;;;;;;448.27;208.87;;;;;;;;;;5010210;28;20247;-81
2023/09/28 01:07:48;;;;;;;453.93;212.63;;;;;;;;;;5008226;28;20209;-79
2023/09/28 01:10:20;;;;;;;460.17;217.77;;;;;;;;;;5002573;28;20281;-79
2023/09/28 01:12:47;;;;;;;470.53;226.63;;;;;;;;;;4996908;28;21015;-79
2023/09/28 01:15:13;;;;;;;446.90;208.63;;;;;;;;;;4997430;28;20255;-79
2023/09/28 01:17:40;;;;;;;470.80;221.73;;;16.40;1.00;;;;;;4997915;28;20400;-79
2023/09/28 01:20:17;;;;;;;464.37;214.33;;;16.40;1.00;;;;;;4993088;28;20218;-79
2023/09/28 01:22:43;;;;;;;464.30;222.77;;;;;;;;;;4991800;28;20220;-79
2023/09/28 01:25:09;;;;;;;458.43;213.13;;;;;;;;;;4998741;28;20255;-78
2023/09/28 01:27:36;;;;;;;454.90;204.10;;;;;;;;;;4999828;28;20181;-79
2023/09/28 01:30:03;;;;;;;487.47;230.37;;;;;;;;;;4987351;28;20227;-79
2023/09/28 01:32:29;;;;;;;462.20;210.47;;;;;;;;;;4998700;28;20587;-79
2023/09/28 01:34:55;;;;;;;488.30;227.73;;;;;;;;;;4995703;28;20217;-79
2023/09/28 01:37:29;;;;;;;456.47;208.53;;;16.30;1.00;;;;;;4991255;28;20214;-79
2023/09/28 01:39:55;;;;;;;454.67;211.73;;;;;;;;;;5000086;28;20213;-79
2023/09/28 01:42:21;;;;;;;454.77;206.00;;;;;;;;;;4999172;28;20267;-79
2023/09/28 01:44:47;;;;;;;466.37;216.90;;;;;;;;;;4997749;28;20737;-79
2023/09/28 01:47:13;;;;;;;439.30;200.37;;;;;;;;;;4999757;28;20216;-79
2023/09/28 01:49:39;;;;;;;505.33;243.83;;;;;;;;;;4995170;28;20695;-79
2023/09/28 01:52:05;;;;;;;455.90;211.10;;;;;;;;;;4995084;28;20240;-79
2023/09/28 01:54:31;;;;;;;458.27;213.93;;;;;;;;;;4995777;28;20222;-78
2023/09/28 01:56:57;;;;;;;470.40;221.23;;;;;;;;;;4997275;28;20212;-78
2023/09/28 01:59:23;;;;;;;446.37;204.50;;;;;;;;;;5000445;28;20758;-78
2023/09/28 02:01:50;;;;;;;486.63;230.20;;;;;;;;;;4997857;28;20237;-78
2023/09/28 02:04:16;;;;;;;451.70;209.97;;;;;;;;;;4995183;28;20601;-78
2023/09/28 02:06:42;;;;;;;477.77;216.47;;;;;;;;;;4991935;28;20174;-78
2023/09/28 02:09:10;;;;;;;468.10;211.63;;;;;;;;;;4994460;28;20300;-78
2023/09/28 02:11:43;;;;;;;485.10;222.67;;;;;;;;;;5000146;28;20216;-78
2023/09/28 02:14:09;;;;;;;514.40;236.93;;;;;;;;;;4995210;28;20719;-77
2023/09/28 02:16:35;;;;;;;459.00;205.33;;;;;;;;;;4997338;28;20289;-77
2023/09/28 02:19:01;;;;;;;477.50;220.17;;;;;;;;;;4990723;28;20279;-77
2023/09/28 02:21:27;;;;;;;456.53;208.63;;;;;;;;;;4983541;28;20281;-78
2023/09/28 02:23:53;;;;;;;484.97;220.90;;;;;;;;;;4989697;28;20217;-78
2023/09/28 02:26:19;;;;;;;465.40;209.80;;;;;;;;;;4980836;28;20241;-78
2023/09/28 02:28:45;;;;;;;467.37;207.27;;;;;;;;;;4993898;28;20240;-78
2023/09/28 02:31:11;;;;;;;466.63;209.40;;;;;;;;;;4993874;28;20590;-78
2023/09/28 02:33:37;;;;;;;462.30;206.47;;;;;;;;;;4995002;28;20239;-78
2023/09/28 02:36:03;;;;;;;449.43;202.03;;;;;;;;;;4992824;28;20219;-77
2023/09/28 02:38:29;;;;;;;475.33;212.40;;;16.00;1.00;;;;;;4995036;28;20213;-78
2023/09/28 02:40:55;;;;;;;467.63;211.67;;;;;;;;;;5000941;28;20217;-78
2023/09/28 02:43:21;;;;;;;460.07;201.37;;;;;;;;;;4994000;28;20613;-78
2023/09/28 02:45:47;;;;;;;486.47;218.23;;;;;;;;;;4987603;28;20500;-78
2023/09/28 02:48:13;;;;;;;473.93;209.90;;;;;;;;;;4990555;28;20224;-77
2023/09/28 02:50:39;;;;;;;465.63;202.73;;;;;;;;;;4995538;28;20224;-78
2023/09/28 02:53:06;;;;;;;479.57;210.80;;;;;;;;;;4990956;28;20769;-79
2023/09/28 02:55:32;;;;;;;454.07;202.17;;;;;;;;;;4996447;28;20209;-78
2023/09/28 02:57:58;;;;;;;485.50;218.70;;;;;;;;;;4992553;28;20245;-78
2023/09/28 03:00:25;;;;;;;465.10;209.73;;;;;;;;;;4995018;28;20686;-78
2023/09/28 03:02:52;;;;;;;480.47;212.37;;;;;;;;;;4992825;28;20228;-78
2023/09/28 03:05:18;;;;;;;480.33;211.20;;;;;;;;;;4997848;28;20308;-78
2023/09/28 03:07:44;;;;;;;486.37;215.53;;;;;;;;;;4989934;28;20343;-78
2023/09/28 03:10:12;;;;;;;452.73;198.10;;;;;;;;;;4990714;28;20256;-78
2023/09/28 03:12:39;;;;;;;429.67;186.13;;;;;;;;;;4990446;28;20275;-78
2023/09/28 03:15:05;;;;;;;482.33;213.03;;;;;;;;;;4986466;28;20214;-78
2023/09/28 03:17:31;;;;;;;444.03;193.30;;;;;;;;;;4983598;28;20209;-79
2023/09/28 03:19:57;;;;;;;483.03;219.40;;;;;;;;;;4985881;28;20624;-78
2023/09/28 03:22:23;;;;;;;457.83;202.73;;;;;;;;;;4984726;28;20247;-77
2023/09/28 03:24:49;;;;;;;506.13;228.07;;;;;;;;;;4997164;28;20188;-77
2023/09/28 03:27:15;;;;;;;446.90;198.07;;;;;;;;;;4996350;28;20196;-80
2023/09/28 03:29:42;;;;;;;466.50;208.43;;;;;;;;;;4998380;28;20224;-78
2023/09/28 03:32:07;;;;;;;457.23;202.73;;;;;;;;;;4993204;28;20224;-78
2023/09/28 03:34:33;;;;;;;492.70;221.30;;;;;;;;;;4996170;28;20237;-78
2023/09/28 03:36:59;;;;;;;470.97;209.63;;;;;;;;;;4989180;28;20190;-78
2023/09/28 03:39:25;;;;;;;468.50;205.97;;;;;;;;;;4992505;28;20174;-79
2023/09/28 03:41:51;;;;;;;505.17;224.33;;;;;;;;;;4989623;28;20225;-78
2023/09/28 03:44:17;;;;;;;468.97;209.60;;;;;;;;;;4995766;28;20246;-79
2023/09/28 03:46:43;;;;;;;472.50;210.17;;;;;;;;;;4997785;28;20221;-78
2023/09/28 03:49:09;;;;;;;450.13;194.90;;;;;;;;;;4991529;28;20221;-80
2023/09/28 03:51:35;;;;;;;482.33;222.23;;;;;;;;;;4996644;28;20182;-79
2023/09/28 03:54:01;;;;;;;470.80;209.97;;;;;;;;;;4997045;28;20213;-78
2023/09/28 03:56:28;;;;;;;465.33;201.27;;;;;;;;;;4996215;28;20319;-78
2023/09/28 03:58:54;;;;;;;505.97;225.73;;;;;;;;;;5005858;28;20213;-79
2023/09/28 04:01:20;;;;;;;461.83;204.37;;;;;;;;;;4995176;28;20205;-78
2023/09/28 04:03:45;;;;;;;455.30;200.00;;;;;;;;;;4993853;28;20189;-78
2023/09/28 04:06:12;;;;;;;439.00;195.93;;;;;;;;;;4987975;28;20227;-79
2023/09/28 04:08:39;;;;;;;448.37;199.43;;;;;;;;;;4998419;28;20270;-79
2023/09/28 04:11:05;;;;;;;494.53;216.23;;;;;;;;;;4988102;28;20213;-79
2023/09/28 04:13:31;;;;;;;441.03;193.57;;;;;;;;;;5000108;28;20713;-78
2023/09/28 04:15:56;;;;;;;509.63;221.00;;;;;;;;;;4986338;28;20186;-78
2023/09/28 04:18:22;;;;;;;464.37;195.67;;;;;;;;;;5002480;28;20177;-77
2023/09/28 04:20:48;;;;;;;481.20;205.27;;;;;;;;;;4994955;28;20217;-78
2023/09/28 04:23:14;;;;;;;456.43;198.27;;;;;;;;;;4994042;28;20683;-78
2023/09/28 04:25:40;;;;;;;463.77;198.47;;;;;;;;;;4997936;28;20213;-78
2023/09/28 04:28:06;;;;;;;496.07;219.70;;;;;;;;;;5003999;28;20196;-79
2023/09/28 04:30:34;;;;;;;457.13;195.33;;;;;;;;;;4992024;28;20181;-78
2023/09/28 04:33:00;;;;;;;485.43;212.37;;;;;;;;;;5000402;28;20281;-78
2023/09/28 04:35:26;;;;;;;456.20;193.37;;;;;;;;;;4995036;28;20320;-78
2023/09/28 04:37:52;;;;;;;487.50;213.43;;;;;;;;;;4987201;28;20217;-78
2023/09/28 04:40:24;;;;;;;480.60;210.83;;;;;;;;;;4988837;28;20300;-78
2023/09/28 04:42:49;;;;;;;488.13;207.20;;;;;;;;;;4998620;28;20208;-78
2023/09/28 04:45:15;;;;;;;473.83;202.30;;;;;;;;;;4999334;28;20189;-77
2023/09/28 04:47:42;;;;;;;458.27;194.47;;;;;;;;;;4997981;28;20217;-78
2023/09/28 04:50:08;;;;;;;503.67;215.30;;;;;;;;;;4999765;28;20743;-77
2023/09/28 04:52:35;;;;;;;462.63;195.27;;;;;;;;;;5001415;28;20244;-78
2023/09/28 04:55:01;;;;;;;491.27;217.67;;;;;;;;;;4995875;28;20189;-78
2023/09/28 04:57:27;;;;;;;476.37;201.47;;;;;;;;;;5001617;28;20181;-78
2023/09/28 04:59:53;;;;;;;496.60;213.57;;;;;;;;;;4994780;28;20223;-78
2023/09/28 05:02:20;;;;;;;463.03;198.40;;;;;;;;;;4989990;28;20355;-78
2023/09/28 05:04:46;;;;;;;477.47;203.00;;;;;;;;;;5001879;28;20225;-78
2023/09/28 05:07:12;;;;;;;474.00;204.10;;;;;;;;;;4989665;28;20703;-78
2023/09/28 05:09:38;;;;;;;445.53;190.67;;;;;;;;;;5000246;28;20193;-78
2023/09/28 05:12:04;;;;;;;501.50;216.20;;;;;;;;;;4999947;28;20300;-78
2023/09/28 05:14:30;;;;;;;467.13;198.07;;;;;;;;;;5004829;28;20294;-78
2023/09/28 05:16:56;;;;;;;493.70;214.07;;;;;;;;;;5006689;28;20641;-79
2023/09/28 05:19:22;;;;;;;458.43;195.20;;;;;;;;;;4995665;28;20759;-78
2023/09/28 05:21:49;;;;;;;489.30;215.53;;;;;;;;;;5001221;28;20204;-75
2023/09/28 05:24:15;;;;;;;439.57;183.37;;;;;;;;;;4987244;28;20186;-75
2023/09/28 05:26:41;;;;;;;431.73;187.20;;;;;;;;;;4991267;28;20215;-76
2023/09/28 05:29:07;;;;;;;489.60;210.70;;;;;;;;;;4992259;28;20304;-75
2023/09/28 05:31:33;;;;;;;474.47;203.40;;;;;;;;;;4998433;28;20363;-77
2023/09/28 05:33:59;;;;;;;508.03;221.60;;;;;;;;;;4976366;28;20513;-77
2023/09/28 05:36:25;;;;;;;486.50;209.57;;;;;;;;;;4979197;28;20655;-77
2023/09/28 05:38:51;;;;;;;467.53;201.67;;;;;;;;;;4992505;28;20213;-76
2023/09/28 05:41:17;;;;;;;442.20;189.23;;;;;;;;;;4994772;28;20270;-75
2023/09/28 05:43:43;;;;;;;431.77;183.60;;;;;;;;;;4983320;28;20699;-74
2023/09/28 05:46:09;;;;;;;458.13;198.23;;;;;;;;;;4989516;28;20220;-75
2023/09/28 05:48:35;;;;;;;459.90;198.43;;;;;;;;;;4999657;28;20768;-72
2023/09/28 05:51:00;;;;;;;483.90;208.10;;;15.10;30.60;;;;;;4983030;28;20550;-71
2023/09/28 05:53:26;;;;;;;452.03;196.03;;;;;;;;;;4987484;28;20457;-68
2023/09/28 05:55:52;;;;;;;459.37;196.77;;;;;;;;;;4988087;28;20222;-73
2023/09/28 05:58:18;;;;;;;480.53;209.83;;;;;;;;;;4979362;28;20315;-74
2023/09/28 06:00:45;;;;;;;479.37;208.60;;;;;;;;;;4993682;28;20362;-74
2023/09/28 06:03:12;;;;;;;477.50;203.63;;;;;;;;;;4989402;28;20247;-74
2023/09/28 06:05:39;;;;;;;452.47;192.30;;;;;;;;;;4983663;28;20307;-72
2023/09/28 06:08:05;;;;;;;492.63;214.83;;;;;;;;;;4995284;28;20231;-72
2023/09/28 06:10:31;;;;;;;464.77;198.03;;;;;;;;;;4991907;28;20216;-72
2023/09/28 06:12:57;;;;;;;459.43;197.60;;;;;;;;;;4991176;28;20209;-70
2023/09/28 06:15:23;;;;;;;455.90;194.53;;;;;;;;;;4986550;28;20192;-69
2023/09/28 06:17:49;;;;;;;467.53;197.03;;;;;;;;;;4983576;28;20213;-73
2023/09/28 06:20:17;;;;;;;465.60;197.40;;;;;;;;;;4972208;28;20315;-67
2023/09/28 06:22:42;;;;;;;494.10;215.00;;;15.90;1.00;;;;;;4989818;28;20228;-68
2023/09/28 06:25:08;;;;;;;481.17;206.93;;;;;;;;;;4985758;28;20734;-67
2023/09/28 06:27:34;;;;;;;484.50;210.37;;;;;;;;;;4991153;28;20196;-68
2023/09/28 06:30:02;;;;;;;515.30;229.20;;;;;;;;;;4990957;28;20216;-68
2023/09/28 06:32:28;;;;;;;463.97;198.07;;;;;;;;;;4980293;28;20214;-68
2023/09/28 06:34:54;;;;;;;452.57;196.60;;;;;;;;;;4985709;28;20232;-66
2023/09/28 06:37:20;;;;;;;454.43;196.07;;;;;;;;;;4988403;28;20224;-67
2023/09/28 06:39:46;;;;;;;455.87;198.37;;;;;;;;;;4990118;28;20193;-68
2023/09/28 06:42:11;;;;;;;461.00;204.73;;;;;;;;;;4988930;28;20266;-68
2023/09/28 06:44:37;;;;;;;446.87;193.40;;;;;;;;;;4992150;28;20209;-67
2023/09/28 06:47:04;;;;;;;512.60;231.97;;;;;;;;;;4977938;28;20256;-72
2023/09/28 06:49:32;;;;;;;479.57;209.33;;;;;;;;;;4995017;28;21836;-69
2023/09/28 06:51:58;;;;;;;467.23;203.80;;;;;;;;;;4980932;28;20200;-67
2023/09/28 06:54:24;;;;;;;465.50;199.83;;;;;;;;;;4989872;28;20209;-68
2023/09/28 06:56:50;;;;;;;481.53;205.47;;;;;;;;;;4991909;28;20995;-69
2023/09/28 06:59:16;;;;;;;495.83;224.03;;;;;;;;;;4990773;28;20249;-68
2023/09/28 07:01:42;;;;;;;511.83;227.93;;;;;;;;;;4992882;28;20228;-67
2023/09/28 07:04:08;;;;;;;481.10;212.10;;;;;;;;;;4985493;28;20224;-68
2023/09/28 07:06:34;;;;;;;473.47;204.17;;;;;;;;;;4988949;28;20301;-69
2023/09/28 07:09:01;;;;;;;530.80;236.97;;;;;;;;;;4975774;28;20221;-68
2023/09/28 07:11:27;;;;;;;477.77;211.80;;;;;;;;;;4986941;28;20216;-68
2023/09/28 07:13:53;;;;;;;466.97;209.07;;;;;;;;;;4999360;28;20260;-68
2023/09/28 07:16:20;;;;;;;468.27;199.50;;;;;;;;;;5004121;28;20221;-68
2023/09/28 07:18:46;;;;;;;469.83;212.33;;;;;;;;;;5005989;28;20591;-69
2023/09/28 07:21:11;;;;;;;490.87;222.60;;;;;;;;;;4989651;28;20230;-68
2023/09/28 07:23:41;;;;;;;497.53;227.47;;;17.70;99.90;;;;;;4985319;28;20220;-71
2023/09/28 07:26:18;;;;;;;484.30;218.20;;;;;;;;;;5002684;28;20223;-68
2023/09/28 07:28:44;;;;;;;457.50;206.00;;;;;;;;;;5001015;28;20216;-68
2023/09/28 07:31:11;;;;;;;504.40;231.53;;;18.00;99.90;;;;;;5010317;28;20282;-69
2023/09/28 07:33:37;;;;;;;439.23;200.37;;;;;;;;;;4990775;28;20769;-69
2023/09/28 07:36:05;;;;;;;455.20;206.57;;;18.10;99.90;;;;;;5014669;28;20208;-69
2023/09/28 07:38:32;;;;;;;454.77;206.67;;;;;;;;;;5017839;28;20633;-69
2023/09/28 07:40:58;;;;;;;446.17;205.47;;;;;;;;;;5012824;28;20339;-68
2023/09/28 07:43:24;;;;;;;460.60;215.77;;;;;;;;;;5010385;28;21127;-69
2023/09/28 07:45:51;;;;;;;500.43;238.60;;;;;;;;;;5012496;28;20190;-69
2023/09/28 07:48:17;;;;;;;518.03;245.40;;;;;;;;;;5002865;28;20535;-69
2023/09/28 07:50:43;;;;;;;482.93;224.10;;;;;;;;;;4994220;28;20212;-69
2023/09/28 07:53:09;;;;;;;480.13;229.70;;;;;;;;;;4998287;28;20220;-69
2023/09/28 07:55:35;;;;;;;459.20;212.43;;;;;;;;;;5008798;28;20212;-68
2023/09/28 07:58:00;;;;;;;488.07;230.17;;;19.00;99.90;;;;;;5002124;28;20176;-69
2023/09/28 08:00:27;;;;;;;469.53;225.10;;;;;;;;;;5005589;28;20670;-69
2023/09/28 08:02:53;;;;;;;490.53;239.07;;;;;;;;;;5008985;28;20213;-70
2023/09/28 08:05:21;;;;;;;464.33;230.43;;;;;;;;;;5009121;28;20224;-70
2023/09/28 08:07:47;;;;;;;473.37;228.97;;;;;;;;;;5002945;28;20614;-70
2023/09/28 08:10:13;;;;;;;494.90;246.13;;;;;;;;;;4999273;28;20833;-69
2023/09/28 08:12:39;;;;;;;499.40;249.47;;;;;;;;;;4983877;28;20209;-71
2023/09/28 08:15:06;;;;;;;480.30;235.27;;;19.90;99.90;;;;;;4990714;28;20354;-71
2023/09/28 08:17:33;;;;;;;493.13;241.17;;;;;;;;;;4994011;28;20210;-71
2023/09/28 08:19:59;;;;;;;499.23;251.83;;;;;;;;;;4991219;28;20209;-71
2023/09/28 08:22:26;;;;;;;473.10;243.83;;;;;;;;;;4984467;28;20627;-71
2023/09/28 08:24:52;;;;;;;458.47;231.67;;;;;;;;;;4987308;28;20213;-73
2023/09/28 08:27:18;;;;;;;522.70;277.03;;;;;;;;;;4992792;28;20235;-72
2023/09/28 08:29:44;;;;;;;475.20;252.33;;;;;;;;;;4993556;28;20209;-71
2023/09/28 08:32:10;;;;;;;486.93;260.47;;;;;;;;;;4995216;28;20228;-71
2023/09/28 08:34:36;;;;;;;536.83;286.40;;;;;;;;;;4993294;28;20746;-68
2023/09/28 08:37:03;;;;;;;495.73;263.70;;;;;;;;;;4996229;28;20279;-67
2023/09/28 08:39:30;;;;;;;477.07;255.60;;;;;;;;;;4997270;28;20265;-67
2023/09/28 08:42:00;;;;;;;487.47;256.53;;;20.80;99.90;;;;;;4994411;28;20225;-67
2023/09/28 08:44:26;;;;;;;469.67;244.43;;;;;;;;;;4995013;28;20791;-67
2023/09/28 08:46:58;;;;;;;481.13;250.70;;;20.90;1.00;;;;;;4994439;28;20221;-67
2023/09/28 08:49:27;;;;;;;468.13;241.97;;;21.10;1.00;;;;;;4992034;28;20213;-67
2023/09/28 08:51:54;;;;;;;499.07;256.17;;;;;;;;;;4997580;28;20897;-67
2023/09/28 08:54:22;;;;;;;506.63;268.00;;;21.30;1.00;;;;;;4990860;28;20213;-67
2023/09/28 08:56:50;;;;;;;481.40;256.47;;;21.40;1.00;;;;;;4993066;28;20247;-67
2023/09/28 08:59:17;;;;;;;516.57;274.27;;;;;;;;;;4990819;28;20299;-67
2023/09/28 09:01:42;;;;;;;527.50;278.40;;;21.50;99.90;;;;;;4991089;28;20210;-67
2023/09/28 09:04:09;;;;;;;503.60;268.50;;;21.70;1.00;;;;;;4991139;28;20364;-67
2023/09/28 09:06:35;;;;;;;496.07;262.90;;;;;;;;;;4992470;28;20192;-67
2023/09/28 09:09:03;;;;;;;508.87;277.87;;;21.60;99.90;;;;;;4992275;28;20212;-67
2023/09/28 09:11:30;;;;;;;516.23;279.50;;;21.70;99.90;;;;;;4983841;28;20224;-67
2023/09/28 09:13:56;;;;;;;508.23;273.03;;;;;;;;;;4988676;28;20237;-67
2023/09/28 09:16:23;;;;;;;540.13;289.83;;;21.90;66.20;;;;;;4991617;28;20280;-68
2023/09/28 09:18:50;;;;;;;486.37;261.60;;;22.00;1.00;;;;;;4993161;28;20660;-67
2023/09/28 09:21:16;;;;;;;491.43;274.37;;;;;;;;;;4991743;28;20197;-67
2023/09/28 09:23:42;;;;;;;484.17;269.40;;;;;;;;;;4988977;28;20220;-67
2023/09/28 09:26:18;;;;;;;531.30;289.37;;;22.10;1.00;;;;;;4990686;28;20210;-67
2023/09/28 09:28:46;;;;;;;483.07;266.17;;;22.10;1.00;;;;;;4989899;28;20219;-69
2023/09/28 09:31:14;;;;;;;508.30;277.77;;;22.30;1.00;;;;;;4983772;28;20938;-69
2023/09/28 09:33:40;;;;;;;497.53;279.80;;;;;;;;;;4989729;28;21031;-68
2023/09/28 09:36:07;;;;;;;524.47;296.47;;;;;;;;;;4985977;28;20221;-69
2023/09/28 09:38:33;;;;;;;488.07;280.23;;;;;;;;;;4984652;28;20222;-69
2023/09/28 09:41:00;;;;;;;542.10;303.40;;;22.60;1.00;;;;;;4991634;28;20667;-69
2023/09/28 09:43:30;;;;;;;534.30;302.53;;;22.70;1.00;;;;;;4985390;28;20598;-68
2023/09/28 09:45:56;;;;;;;481.17;282.17;;;;;;;;;;4989485;28;20789;-68
2023/09/28 09:48:24;;;;;;;531.90;302.27;;;;;;;;;;4978357;28;20269;-68
2023/09/28 09:50:50;;;;;;;480.87;277.50;;;;;;;;;;4987698;28;20212;-68
2023/09/28 09:53:17;;;;;;;513.23;286.83;;;22.90;99.90;;;;;;4987033;28;20220;-68
2023/09/28 09:55:43;;;;;;;538.73;309.37;;;;;;;;;;4990792;28;20753;-68
2023/09/28 09:58:13;;;;;;;516.70;295.50;;;23.10;99.90;;;;;;4986862;28;20255;-69
2023/09/28 10:00:40;;;;;;;509.90;293.93;;;23.20;99.90;;;;;;4993872;28;20231;-69
2023/09/28 10:03:08;;;;;;;494.33;297.13;;;23.20;99.90;;;;;;4993829;28;20304;-69
2023/09/28 10:05:35;;;;;;;508.80;302.40;;;20.70;99.90;;;;;;4986335;28;20290;-69
2023/09/28 10:08:04;;;;;;;496.53;299.03;;;23.30;99.90;;;;;;4994262;28;20229;-70
2023/09/28 10:10:31;;;;;;;561.67;337.20;;;;;;;;;;4996156;28;20224;-69
2023/09/28 10:12:58;;;;;;;509.27;309.37;;;23.50;34.20;;;;;;4987931;28;20248;-69
2023/09/28 10:15:24;;;;;;;522.60;316.40;;;23.60;27.20;;;;;;4996485;28;20677;-69
2023/09/28 10:17:51;;;;;;;542.30;325.43;;;;;;;;;;4980099;28;20210;-70
2023/09/28 10:20:18;;;;;;;547.13;330.00;;;;;;;;;;4989538;28;20217;-69
2023/09/28 10:22:44;;;;;;;477.47;290.20;;;;;;;;;;4987822;28;20221;-69
2023/09/28 10:25:15;;;;;;;495.70;298.27;;;23.80;1.00;;;;;;4997629;28;20283;-70
2023/09/28 10:27:43;;;;;;;485.40;288.93;;;23.80;1.00;;;;;;4985903;28;20268;-70
2023/09/28 10:30:22;;;;;;;512.27;308.23;;;24.00;1.00;;;;;;4992943;28;20236;-70
2023/09/28 10:32:51;;;;;;;486.93;303.30;;;24.00;1.00;;;;;;4990794;28;20264;-69
2023/09/28 10:35:20;;;;;;;530.57;316.37;;;24.10;1.00;;;;;;4990884;28;20231;-70
2023/09/28 10:38:15;;;;;;;509.27;303.60;;;24.10;1.00;;;;;;4994360;28;20253;-72
2023/09/28 10:40:42;;;;;;;487.60;306.83;;;;;;;;;;4987724;28;20268;-70
2023/09/28 10:43:11;;;;;;;490.17;299.00;;;24.30;1.00;;;;;;4986880;28;20845;-69
2023/09/28 10:45:38;;;;;;;490.13;310.73;;;;;;;;;;4987496;28;20590;-69
2023/09/28 10:48:07;;;;;;;512.83;318.87;;;;;;;;;;4991407;28;20221;-70
2023/09/28 10:50:37;;;;;;;501.67;311.00;;;24.60;1.00;;;;;;4993185;28;20209;-70
2023/09/28 10:53:03;;;;;;;513.37;315.77;;;;;;;;;;4982251;28;20301;-71
2023/09/28 10:55:30;;;;;;;503.03;311.17;;;;;;;;;;4987767;28;20243;-70
2023/09/28 10:58:02;;;;;;;508.23;329.83;;;24.90;1.00;;;;;;4982094;28;20186;-70
2023/09/28 11:00:30;;;;;;;509.27;324.60;;;;;;;;;;4991820;28;20260;-70
2023/09/28 11:02:56;;;;;;;530.43;328.37;;;;;;;;;;4986948;28;20303;-70
2023/09/28 11:05:22;;;;;;;513.20;319.63;;;;;;;;;;4990560;28;20311;-70
2023/09/28 11:07:51;;;;;;;494.90;312.10;;;;;;;;;;4991366;28;20699;-70
2023/09/28 11:10:17;;;;;;;528.63;332.47;;;;;;;;;;4988251;28;20220;-70
2023/09/28 11:12:44;;;;;;;531.90;337.20;;;25.50;1.00;;;;;;4990816;28;20594;-70
2023/09/28 11:15:14;;;;;;;524.03;332.13;;;;;;;;;;4992552;28;20465;-70
2023/09/28 11:17:40;;;;;;;490.57;314.57;;;;;;;;;;4989938;28;20556;-70
2023/09/28 11:20:06;;;;;;;509.03;331.37;;;;;;;;;;4981562;28;21570;-70
2023/09/28 11:22:32;;;;;;;510.33;321.20;;;;;;;;;;4993449;28;20217;-70
2023/09/28 11:24:58;;;;;;;521.13;337.47;;;25.70;99.90;;;;;;4985809;28;20540;-70
2023/09/28 11:27:24;;;;;;;574.43;366.87;;;;;;;;;;4987885;28;20181;-70
2023/09/28 11:29:57;;;;;;;502.50;326.83;;;;;;;;;;4988556;28;20205;-70
2023/09/28 11:32:23;;;;;;;563.67;357.40;;;26.00;99.90;;;;;;4988336;28;20217;-70
2023/09/28 11:34:49;;;;;;;516.37;330.03;;;;;;;;;;4982769;28;21016;-70
2023/09/28 11:37:16;;;;;;;539.93;355.17;;;;;;;;;;4988607;28;20244;-70
2023/09/28 11:39:42;;;;;;;516.60;338.40;;;;;;;;;;4987632;28;20639;-70
2023/09/28 11:42:08;;;;;;;567.27;361.30;;;;;;;;;;4984609;28;20221;-70
2023/09/28 11:44:35;;;;;;;495.47;323.53;;;;;;;;;;4993074;28;20233;-70
2023/09/28 11:47:01;;;;;;;533.17;342.67;;;;;;;;;;4990811;28;20220;-72
2023/09/28 11:49:27;;;;;;;538.43;355.10;;;;;;;;;;4987242;28;20730;-75
2023/09/28 11:51:53;;;;;;;520.97;349.07;;;;;;;;;;4988646;28;20204;-73
2023/09/28 11:54:21;;;;;;;527.63;341.13;;;26.50;99.90;;;;;;4994026;28;20217;-69
2023/09/28 11:56:47;;;;;;;519.30;349.97;;;;;;;;;;4964698;28;20318;-69
2023/09/28 11:59:15;;;;;;;491.80;326.13;;;;;;;;;;4989492;28;20209;-69
2023/09/28 12:01:41;;;;;;;519.17;340.30;;;;;;;;;;4993414;28;20213;-69
2023/09/28 12:04:08;;;;;;;669.10;428.43;;;;;;;;;;4988421;28;20185;-70
2023/09/28 12:06:34;;;;;;;505.83;338.20;;;;;;;;;;4991087;28;20209;-69
2023/09/28 12:09:00;;;;;;;554.50;356.57;;;;;;;;;;4992136;28;20326;-68
2023/09/28 12:11:26;;;;;;;537.77;353.07;;;;;;;;;;4994497;28;20306;-75
2023/09/28 12:13:52;;;;;;;538.80;356.70;;;;;;;;;;4987775;28;20232;-70
2023/09/28 12:16:26;;;;;;;509.20;343.20;;;27.00;99.90;;;;;;4989726;28;20216;-69
2023/09/28 12:18:52;;;;;;;503.70;337.73;;;;;;;;;;4992871;28;20949;-70
2023/09/28 12:21:18;;;;;;;525.00;350.47;;;;;;;;;;4993150;28;20254;-70
2023/09/28 12:23:44;;;;;;;505.27;342.57;;;;;;;;;;4993695;28;20216;-70
2023/09/28 12:26:11;;;;;;;514.77;345.13;;;;;;;;;;4990668;28;20694;-69
2023/09/28 12:28:37;;;;;;;504.97;347.40;;;;;;;;;;4995668;28;20225;-69
2023/09/28 12:31:04;;;;;;;500.73;340.33;;;;;;;;;;4995093;28;20185;-69
2023/09/28 12:33:29;;;;;;;540.47;369.30;;;27.50;99.90;;;;;;4990574;28;20220;-67
2023/09/28 12:35:57;;;;;;;519.13;354.83;;;27.70;92.20;;;;;;4990438;28;20252;-69
2023/09/28 12:38:23;;;;;;;515.10;353.27;;;;;;;;;;4988306;28;20221;-70
2023/09/28 12:40:49;;;;;;;493.67;344.70;;;;;;;;;;4992577;28;20217;-71
2023/09/28 12:43:16;;;;;;;499.80;350.60;;;28.30;58.60;;;;;;4991541;28;20271;-71
2023/09/28 12:45:43;;;;;;;508.80;361.20;;;;;;;;;;4989576;28;20196;-72
2023/09/28 12:48:10;;;;;;;521.57;361.67;;;;;;;;;;4992806;28;20213;-73
2023/09/28 12:50:36;;;;;;;496.23;350.57;;;29.00;62.30;;;;;;4989943;28;20232;-70
2023/09/28 12:53:02;;;;;;;521.30;363.50;;;;;;;;;;4993119;28;20217;-73
2023/09/28 12:55:28;;;;;;;521.50;354.77;;;;;;;;;;4990963;28;20236;-72
2023/09/28 12:57:55;;;;;;;528.70;368.57;;;;;;;;;;4992295;28;20592;-72
2023/09/28 13:00:25;;;;;;;613.53;412.17;;;;;;;;;;4991081;28;20181;-69
2023/09/28 13:02:51;;;;;;;532.73;365.73;;;29.20;1.00;;;;;;4975884;28;20213;-69
2023/09/28 13:05:18;;;;;;;506.97;353.73;;;;;;;;;;4985831;28;20213;-69
2023/09/28 13:07:44;;;;;;;731.30;478.33;;;;;;;;;;4977525;28;20324;-68
2023/09/28 13:10:16;;;;;;;552.10;389.00;;;;;;;;;;4947698;28;20638;-69
2023/09/28 13:12:45;;;;;;;539.43;388.30;;;29.50;1.00;;;;;;4980900;28;20338;-69
2023/09/28 13:15:13;;;;;;;507.40;368.40;;;29.70;1.00;;;;;;4981478;28;20213;-70
2023/09/28 13:17:39;;;;;;;517.67;383.00;;;;;;;;;;4981658;28;20217;-70
2023/09/28 13:20:08;;;;;;;542.03;397.00;;;;;;;;;;4986831;28;20619;-70
2023/09/28 13:22:34;;;;;;;522.70;397.97;;;;;;;;;;4985807;28;20221;-70
2023/09/28 13:25:00;;;;;;;574.03;425.93;;;30.90;1.00;;;;;;4985736;28;20602;-70
2023/09/28 13:27:26;;;;;;;575.83;441.03;;;;;;;;;;4980789;28;20193;-70
2023/09/28 13:29:52;;;;;;;505.20;418.40;;;;;;;;;;4996756;28;20220;-71